ISABELLA DAM (ISB)

Elevation: 2635' · KERN R basin · Operator: US Army Corps of Engineers

Provisional data, subject to change.
Query executed Sunday at 0:28:13   clock

Select a sensor type for a plot of data.
Note: Reservoir Flows are daily averages.

Earlier

Date RES ELE    STORAGE    RES CHG    TOC STO    ABV TOC    OUTFLOW    INFLOW    FNF    PPT INC    PPTINC4    TEMP MN    TEMP MX    WINDLEN    EVP PAN   
 FEET   AF   AF   AF   AF   CFS   CFS   CFS   INCHES   INCHES   DEG F   DEG F   MILES   INCHES  
09/27/2014 2531.80 50404 -103 317120 -266716 102 64 64 0.00 0.00 12 19 160 0.15
09/28/2014 2531.80 50327 -77 312800 -262473 98 77 77 0.00 0.00 12 24 157 0.19
09/29/2014 2531.80 50276 -51 308470 -258194 91 85 85 0.00 0.00 13 24 0 0.21
09/30/2014 2531.70 50225 -51 304140 -253915 91 88 88 0.00 0.00 11 28 0 0.22
10/01/2014 2531.70 50225 0 299820 -249595 90 113 113 0.00 0.00 14 30 121 0.23
10/02/2014 2531.80 50250 25 295490 -245240 81 119 119 0.03 0.00 11 32 111 0.25
10/03/2014 2531.70 50199 -51 291160 -240961 98 98 97 0.01 0.00 10 35 102 0.25
10/04/2014 2531.70 50097 -102 286830 -236733 120 89 89 0.00 0.00 12 34 72 0.20
10/05/2014 2531.70 50021 -76 282510 -232489 116 101 101 0.00 0.00 12 36 85 0.23
10/06/2014 2531.60 49919 -102 278180 -228261 111 81 81 0.00 0.00 13 36 76 0.22
10/07/2014 2531.60 49817 -102 273850 -224033 110 82 82 0.00 0.00 13 34 99 0.23
10/08/2014 2531.50 49690 -127 269520 -219830 110 70 70 0.00 0.00 14 32 127 0.24
10/09/2014 2531.50 49589 -101 265200 -215611 111 87 87 0.00 0.00 18 29 183 0.28
10/10/2014 2531.50 49487 -102 260870 -211383 104 74 74 0.00 0.00 13 29 120 0.22
10/11/2014 2531.40 49412 -75 256540 -207128 95 80 80 0.00 0.00 11 32 119 0.22
10/12/2014 2531.41 49386 -26 252216 -202834 90 98 98 0.00 0.00 13 31 110 0.22
10/13/2014 2531.42 49412 26 247889 -198478 79 117 117 0.00 0.00 11 31 137 0.25
10/14/2014 2531.39 49336 -76 243562 -194224 98 83 83 0.00 0.00 11 32 120 0.23
10/15/2014 2531.33 49185 -151 239235 -190050 r 116 59 59 0.00 0.00 14 22 215 0.19
10/16/2014 2531.30 49109 -76 234908 -185799 109 88 88 0.00 0.00 10 24 120 0.17
10/17/2014 2531.28 49059 -50 230580 -181521 99 91 91 0.00 0.00 8 26 109 0.17
10/18/2014 2531.26 49009 -50 226253 -177244 100 91 91 0.00 0.00 9 25 111 0.17
10/19/2014 2531.24 48958 -51 221926 -172968 99 92 92 0.00 0.00 10 31 105 0.19
10/20/2014 2531.21 48883 -75 217599 -168716 99 79 79 0.00 0.00 10 29 109 0.18
10/21/2014 2531.11 48633 -250 213272 -164639 210 98 98 0.00 0.00 12 18 242 0.15
10/22/2014 2530.97 48284 -349 208945 -160661 274 117 117 0.00 0.00 8 27 152 0.19
10/23/2014 2530.84 47962 -322 204617 -156655 265 121 121 0.00 0.00 9 30 116 0.19
10/24/2014 2530.71 47642 -320 200290 -152648 250 109 -- 0.00 0.00 9 34 99 0.21
10/25/2014 -- -- -- -- -- -- -- -- -- 0.00 -- -- -- --
10/26/2014 -- -- -- -- -- -- -- -- -- -- -- -- -- --

Later | Latest

Warning! This data is preliminary and subject to revision.

Show ISB Map | Plot ISB Data | 1 Month ISB Data | Real-Time ISB Data | ISB Info